sensor_id;sensor_type;location;lat;lon;timestamp;temperature;humidity
12438;DHT22;6283;51.330;12.374;2024-01-06T00:01:29;5.90;37.60
12438;DHT22;6283;51.330;12.374;2024-01-06T00:03:55;5.80;38.70
12438;DHT22;6283;51.330;12.374;2024-01-06T00:06:20;5.90;46.00
12438;DHT22;6283;51.330;12.374;2024-01-06T00:08:47;5.70;47.40
12438;DHT22;6283;51.330;12.374;2024-01-06T00:11:16;5.90;50.70
12438;DHT22;6283;51.330;12.374;2024-01-06T00:13:42;5.60;56.80
12438;DHT22;6283;51.330;12.374;2024-01-06T00:16:07;5.70;63.70
12438;DHT22;6283;51.330;12.374;2024-01-06T00:18:33;5.70;71.70
12438;DHT22;6283;51.330;12.374;2024-01-06T00:20:59;5.60;83.20
12438;DHT22;6283;51.330;12.374;2024-01-06T00:23:24;5.70;94.60
12438;DHT22;6283;51.330;12.374;2024-01-06T00:25:50;5.70;99.90
12438;DHT22;6283;51.330;12.374;2024-01-06T00:28:16;5.60;99.90
12438;DHT22;6283;51.330;12.374;2024-01-06T00:30:41;5.60;99.90
12438;DHT22;6283;51.330;12.374;2024-01-06T00:33:07;5.70;99.90
12438;DHT22;6283;51.330;12.374;2024-01-06T00:35:32;5.70;99.90
12438;DHT22;6283;51.330;12.374;2024-01-06T00:37:58;5.60;99.90
12438;DHT22;6283;51.330;12.374;2024-01-06T00:40:25;5.60;99.90
12438;DHT22;6283;51.330;12.374;2024-01-06T00:42:51;5.70;99.90
12438;DHT22;6283;51.330;12.374;2024-01-06T00:45:17;5.40;99.90
12438;DHT22;6283;51.330;12.374;2024-01-06T00:47:43;5.60;99.90
12438;DHT22;6283;51.330;12.374;2024-01-06T00:50:09;5.60;99.90
12438;DHT22;6283;51.330;12.374;2024-01-06T00:52:34;5.60;99.90
12438;DHT22;6283;51.330;12.374;2024-01-06T00:55:00;5.60;99.90
12438;DHT22;6283;51.330;12.374;2024-01-06T00:57:25;5.60;99.90
12438;DHT22;6283;51.330;12.374;2024-01-06T00:59:51;5.50;99.90
12438;DHT22;6283;51.330;12.374;2024-01-06T01:02:17;5.50;99.90
12438;DHT22;6283;51.330;12.374;2024-01-06T01:04:42;5.70;99.90
12438;DHT22;6283;51.330;12.374;2024-01-06T01:07:08;5.50;99.90
12438;DHT22;6283;51.330;12.374;2024-01-06T01:09:34;5.30;99.90
12438;DHT22;6283;51.330;12.374;2024-01-06T01:12:00;5.50;99.90
12438;DHT22;6283;51.330;12.374;2024-01-06T01:14:26;5.60;99.90
12438;DHT22;6283;51.330;12.374;2024-01-06T01:16:51;5.50;99.90
12438;DHT22;6283;51.330;12.374;2024-01-06T01:19:17;5.40;99.90
12438;DHT22;6283;51.330;12.374;2024-01-06T01:21:43;5.50;99.90
12438;DHT22;6283;51.330;12.374;2024-01-06T01:24:08;5.50;99.90
12438;DHT22;6283;51.330;12.374;2024-01-06T01:26:34;5.20;99.90
12438;DHT22;6283;51.330;12.374;2024-01-06T01:28:59;5.50;99.90
12438;DHT22;6283;51.330;12.374;2024-01-06T01:31:25;5.40;99.90
12438;DHT22;6283;51.330;12.374;2024-01-06T01:33:50;5.40;99.90
12438;DHT22;6283;51.330;12.374;2024-01-06T01:36:16;5.40;99.90
12438;DHT22;6283;51.330;12.374;2024-01-06T01:38:43;5.30;99.90
12438;DHT22;6283;51.330;12.374;2024-01-06T01:41:09;5.10;99.90
12438;DHT22;6283;51.330;12.374;2024-01-06T01:43:34;5.30;99.90
12438;DHT22;6283;51.330;12.374;2024-01-06T01:46:00;5.20;99.90
12438;DHT22;6283;51.330;12.374;2024-01-06T01:48:26;5.10;99.90
12438;DHT22;6283;51.330;12.374;2024-01-06T01:50:53;5.20;99.90
12438;DHT22;6283;51.330;12.374;2024-01-06T01:53:19;5.10;99.90
12438;DHT22;6283;51.330;12.374;2024-01-06T01:55:47;5.10;99.90
12438;DHT22;6283;51.330;12.374;2024-01-06T01:58:14;5.00;99.90
12438;DHT22;6283;51.330;12.374;2024-01-06T02:00:39;4.90;99.90
12438;DHT22;6283;51.330;12.374;2024-01-06T02:03:05;5.10;99.90
12438;DHT22;6283;51.330;12.374;2024-01-06T02:05:32;5.20;99.90
12438;DHT22;6283;51.330;12.374;2024-01-06T02:07:58;5.00;99.90
12438;DHT22;6283;51.330;12.374;2024-01-06T02:10:24;5.20;99.90
12438;DHT22;6283;51.330;12.374;2024-01-06T02:12:49;5.20;99.90
12438;DHT22;6283;51.330;12.374;2024-01-06T02:15:17;5.10;99.90
12438;DHT22;6283;51.330;12.374;2024-01-06T02:17:43;5.10;99.90
12438;DHT22;6283;51.330;12.374;2024-01-06T02:20:09;5.20;99.90
12438;DHT22;6283;51.330;12.374;2024-01-06T02:22:36;4.90;99.90
12438;DHT22;6283;51.330;12.374;2024-01-06T02:25:02;4.90;99.90
12438;DHT22;6283;51.330;12.374;2024-01-06T02:27:32;4.90;99.90
12438;DHT22;6283;51.330;12.374;2024-01-06T02:29:58;4.90;1.00
12438;DHT22;6283;51.330;12.374;2024-01-06T02:32:24;5.20;1.00
12438;DHT22;6283;51.330;12.374;2024-01-06T02:34:49;5.20;1.00
12438;DHT22;6283;51.330;12.374;2024-01-06T02:37:15;5.20;1.00
12438;DHT22;6283;51.330;12.374;2024-01-06T02:39:40;4.90;1.00
12438;DHT22;6283;51.330;12.374;2024-01-06T02:42:06;5.20;1.00
12438;DHT22;6283;51.330;12.374;2024-01-06T02:44:32;5.00;1.00
12438;DHT22;6283;51.330;12.374;2024-01-06T02:46:57;5.20;1.00
12438;DHT22;6283;51.330;12.374;2024-01-06T02:49:23;5.00;1.00
12438;DHT22;6283;51.330;12.374;2024-01-06T02:51:48;4.80;1.00
12438;DHT22;6283;51.330;12.374;2024-01-06T02:54:14;5.20;1.00
12438;DHT22;6283;51.330;12.374;2024-01-06T02:56:40;4.80;1.00
12438;DHT22;6283;51.330;12.374;2024-01-06T02:59:05;4.60;1.00
12438;DHT22;6283;51.330;12.374;2024-01-06T03:01:32;4.70;1.00
12438;DHT22;6283;51.330;12.374;2024-01-06T03:03:57;4.90;1.00
12438;DHT22;6283;51.330;12.374;2024-01-06T03:06:23;5.00;1.00
12438;DHT22;6283;51.330;12.374;2024-01-06T03:08:49;4.70;1.00
12438;DHT22;6283;51.330;12.374;2024-01-06T03:11:15;4.80;1.00
12438;DHT22;6283;51.330;12.374;2024-01-06T03:13:40;5.00;1.00
12438;DHT22;6283;51.330;12.374;2024-01-06T03:16:07;4.70;1.00
12438;DHT22;6283;51.330;12.374;2024-01-06T03:18:32;4.70;1.00
12438;DHT22;6283;51.330;12.374;2024-01-06T03:20:58;4.60;1.00
12438;DHT22;6283;51.330;12.374;2024-01-06T03:23:24;4.50;1.00
12438;DHT22;6283;51.330;12.374;2024-01-06T03:25:49;4.80;1.00
12438;DHT22;6283;51.330;12.374;2024-01-06T03:28:15;4.50;1.00
12438;DHT22;6283;51.330;12.374;2024-01-06T03:30:40;4.60;1.00
12438;DHT22;6283;51.330;12.374;2024-01-06T03:33:06;4.80;1.00
12438;DHT22;6283;51.330;12.374;2024-01-06T03:35:32;4.60;1.00
12438;DHT22;6283;51.330;12.374;2024-01-06T03:37:58;4.60;1.00
12438;DHT22;6283;51.330;12.374;2024-01-06T03:40:23;4.60;1.00
12438;DHT22;6283;51.330;12.374;2024-01-06T03:42:49;4.70;1.00
12438;DHT22;6283;51.330;12.374;2024-01-06T03:45:15;4.90;1.00
12438;DHT22;6283;51.330;12.374;2024-01-06T03:47:41;4.50;1.00
12438;DHT22;6283;51.330;12.374;2024-01-06T03:50:06;4.70;1.00
12438;DHT22;6283;51.330;12.374;2024-01-06T03:52:32;4.80;1.00
12438;DHT22;6283;51.330;12.374;2024-01-06T03:54:58;4.70;1.00
12438;DHT22;6283;51.330;12.374;2024-01-06T03:57:23;4.60;1.00
12438;DHT22;6283;51.330;12.374;2024-01-06T03:59:49;4.70;1.00
12438;DHT22;6283;51.330;12.374;2024-01-06T04:02:15;4.70;1.00
12438;DHT22;6283;51.330;12.374;2024-01-06T04:04:40;4.60;1.00
12438;DHT22;6283;51.330;12.374;2024-01-06T04:07:06;4.60;1.00
12438;DHT22;6283;51.330;12.374;2024-01-06T04:09:32;4.50;1.00
12438;DHT22;6283;51.330;12.374;2024-01-06T04:11:58;4.70;1.00
12438;DHT22;6283;51.330;12.374;2024-01-06T04:14:23;4.80;1.00
12438;DHT22;6283;51.330;12.374;2024-01-06T04:16:49;4.70;1.00
12438;DHT22;6283;51.330;12.374;2024-01-06T04:19:14;4.70;1.00
12438;DHT22;6283;51.330;12.374;2024-01-06T04:21:40;4.50;1.00
12438;DHT22;6283;51.330;12.374;2024-01-06T04:24:06;4.60;1.00
12438;DHT22;6283;51.330;12.374;2024-01-06T04:26:32;4.50;1.00
12438;DHT22;6283;51.330;12.374;2024-01-06T04:28:57;4.60;1.00
12438;DHT22;6283;51.330;12.374;2024-01-06T04:31:23;4.50;1.00
12438;DHT22;6283;51.330;12.374;2024-01-06T04:33:48;4.60;1.00
12438;DHT22;6283;51.330;12.374;2024-01-06T04:36:14;4.40;1.00
12438;DHT22;6283;51.330;12.374;2024-01-06T04:38:40;4.40;1.00
12438;DHT22;6283;51.330;12.374;2024-01-06T04:41:05;4.30;1.00
12438;DHT22;6283;51.330;12.374;2024-01-06T04:43:31;4.30;1.00
12438;DHT22;6283;51.330;12.374;2024-01-06T04:45:56;4.40;1.00
12438;DHT22;6283;51.330;12.374;2024-01-06T04:48:23;4.50;1.00
12438;DHT22;6283;51.330;12.374;2024-01-06T04:50:49;4.50;1.00
12438;DHT22;6283;51.330;12.374;2024-01-06T04:53:14;4.40;1.00
12438;DHT22;6283;51.330;12.374;2024-01-06T04:55:40;4.40;1.00
12438;DHT22;6283;51.330;12.374;2024-01-06T04:58:06;4.40;1.00
12438;DHT22;6283;51.330;12.374;2024-01-06T05:00:31;4.30;1.00
12438;DHT22;6283;51.330;12.374;2024-01-06T05:02:57;4.40;1.00
12438;DHT22;6283;51.330;12.374;2024-01-06T05:05:23;4.20;1.00
12438;DHT22;6283;51.330;12.374;2024-01-06T05:07:49;4.20;1.00
12438;DHT22;6283;51.330;12.374;2024-01-06T05:10:14;4.10;1.00
12438;DHT22;6283;51.330;12.374;2024-01-06T05:12:40;4.30;1.00
12438;DHT22;6283;51.330;12.374;2024-01-06T05:15:06;4.20;1.00
12438;DHT22;6283;51.330;12.374;2024-01-06T05:17:31;4.00;1.00
12438;DHT22;6283;51.330;12.374;2024-01-06T05:19:57;4.20;1.00
12438;DHT22;6283;51.330;12.374;2024-01-06T05:22:23;4.00;1.00
12438;DHT22;6283;51.330;12.374;2024-01-06T05:24:49;4.00;1.00
12438;DHT22;6283;51.330;12.374;2024-01-06T05:27:18;4.00;1.00
12438;DHT22;6283;51.330;12.374;2024-01-06T05:29:44;4.30;1.00
12438;DHT22;6283;51.330;12.374;2024-01-06T05:32:09;4.00;1.00
12438;DHT22;6283;51.330;12.374;2024-01-06T05:34:35;4.20;1.00
12438;DHT22;6283;51.330;12.374;2024-01-06T05:37:01;4.10;1.00
12438;DHT22;6283;51.330;12.374;2024-01-06T05:39:27;4.00;1.00
12438;DHT22;6283;51.330;12.374;2024-01-06T05:41:53;4.10;1.00
12438;DHT22;6283;51.330;12.374;2024-01-06T05:44:18;4.10;1.00
12438;DHT22;6283;51.330;12.374;2024-01-06T05:46:44;4.00;1.00
12438;DHT22;6283;51.330;12.374;2024-01-06T05:49:10;4.30;1.00
12438;DHT22;6283;51.330;12.374;2024-01-06T05:51:36;4.00;1.00
12438;DHT22;6283;51.330;12.374;2024-01-06T05:54:01;4.00;1.00
12438;DHT22;6283;51.330;12.374;2024-01-06T05:56:28;4.00;1.00
12438;DHT22;6283;51.330;12.374;2024-01-06T05:58:55;4.00;1.00
12438;DHT22;6283;51.330;12.374;2024-01-06T06:01:21;4.20;1.00
12438;DHT22;6283;51.330;12.374;2024-01-06T06:03:47;4.00;1.00
12438;DHT22;6283;51.330;12.374;2024-01-06T06:06:13;4.00;1.00
12438;DHT22;6283;51.330;12.374;2024-01-06T06:08:41;4.10;1.00
12438;DHT22;6283;51.330;12.374;2024-01-06T06:11:07;3.90;1.00
12438;DHT22;6283;51.330;12.374;2024-01-06T06:13:43;4.20;1.00
12438;DHT22;6283;51.330;12.374;2024-01-06T06:16:12;4.00;1.00
12438;DHT22;6283;51.330;12.374;2024-01-06T06:18:38;3.90;1.00
12438;DHT22;6283;51.330;12.374;2024-01-06T06:21:04;4.10;1.00
12438;DHT22;6283;51.330;12.374;2024-01-06T06:23:32;4.20;1.00
12438;DHT22;6283;51.330;12.374;2024-01-06T06:25:58;4.00;1.00
12438;DHT22;6283;51.330;12.374;2024-01-06T06:28:25;4.10;1.00
12438;DHT22;6283;51.330;12.374;2024-01-06T06:30:51;4.10;1.00
12438;DHT22;6283;51.330;12.374;2024-01-06T06:33:16;4.10;1.00
12438;DHT22;6283;51.330;12.374;2024-01-06T06:35:42;4.10;1.00
12438;DHT22;6283;51.330;12.374;2024-01-06T06:38:08;4.20;1.00
12438;DHT22;6283;51.330;12.374;2024-01-06T06:40:33;3.90;1.00
12438;DHT22;6283;51.330;12.374;2024-01-06T06:42:59;4.10;1.00
12438;DHT22;6283;51.330;12.374;2024-01-06T06:45:25;4.10;4.90
12438;DHT22;6283;51.330;12.374;2024-01-06T06:47:50;4.20;9.80
12438;DHT22;6283;51.330;12.374;2024-01-06T06:50:19;4.20;6.50
12438;DHT22;6283;51.330;12.374;2024-01-06T06:52:47;4.20;1.00
12438;DHT22;6283;51.330;12.374;2024-01-06T06:55:13;4.10;1.00
12438;DHT22;6283;51.330;12.374;2024-01-06T06:57:39;4.10;1.00
12438;DHT22;6283;51.330;12.374;2024-01-06T07:00:05;4.10;1.00
12438;DHT22;6283;51.330;12.374;2024-01-06T07:02:33;4.20;1.00
12438;DHT22;6283;51.330;12.374;2024-01-06T07:04:58;4.10;1.00
12438;DHT22;6283;51.330;12.374;2024-01-06T07:07:24;4.10;1.00
12438;DHT22;6283;51.330;12.374;2024-01-06T07:09:50;4.10;1.00
12438;DHT22;6283;51.330;12.374;2024-01-06T07:12:15;4.10;1.00
12438;DHT22;6283;51.330;12.374;2024-01-06T07:14:41;4.20;1.00
12438;DHT22;6283;51.330;12.374;2024-01-06T07:17:06;4.20;1.00
12438;DHT22;6283;51.330;12.374;2024-01-06T07:19:34;3.90;1.00
12438;DHT22;6283;51.330;12.374;2024-01-06T07:22:00;4.00;1.00
12438;DHT22;6283;51.330;12.374;2024-01-06T07:24:25;4.00;1.00
12438;DHT22;6283;51.330;12.374;2024-01-06T07:26:52;4.00;1.00
12438;DHT22;6283;51.330;12.374;2024-01-06T07:29:18;4.10;1.00
12438;DHT22;6283;51.330;12.374;2024-01-06T07:31:44;4.10;1.00
12438;DHT22;6283;51.330;12.374;2024-01-06T07:34:10;4.10;1.00
12438;DHT22;6283;51.330;12.374;2024-01-06T07:36:35;4.10;1.00
12438;DHT22;6283;51.330;12.374;2024-01-06T07:39:01;4.20;1.00
12438;DHT22;6283;51.330;12.374;2024-01-06T07:41:28;4.20;1.00
12438;DHT22;6283;51.330;12.374;2024-01-06T07:43:56;4.10;1.00
12438;DHT22;6283;51.330;12.374;2024-01-06T07:46:21;4.20;1.00
12438;DHT22;6283;51.330;12.374;2024-01-06T07:48:47;4.20;1.00
12438;DHT22;6283;51.330;12.374;2024-01-06T07:51:13;4.20;1.00
12438;DHT22;6283;51.330;12.374;2024-01-06T07:53:38;4.40;1.00
12438;DHT22;6283;51.330;12.374;2024-01-06T07:56:04;4.40;1.00
12438;DHT22;6283;51.330;12.374;2024-01-06T07:58:30;4.40;1.00
12438;DHT22;6283;51.330;12.374;2024-01-06T08:00:55;4.50;1.00
12438;DHT22;6283;51.330;12.374;2024-01-06T08:03:21;4.60;1.00
12438;DHT22;6283;51.330;12.374;2024-01-06T08:05:47;4.50;1.00
12438;DHT22;6283;51.330;12.374;2024-01-06T08:08:12;4.70;1.00
12438;DHT22;6283;51.330;12.374;2024-01-06T08:10:42;4.60;1.00
12438;DHT22;6283;51.330;12.374;2024-01-06T08:13:08;4.70;1.00
12438;DHT22;6283;51.330;12.374;2024-01-06T08:15:33;4.50;1.00
12438;DHT22;6283;51.330;12.374;2024-01-06T08:17:59;4.80;1.00
12438;DHT22;6283;51.330;12.374;2024-01-06T08:20:25;4.60;99.90
12438;DHT22;6283;51.330;12.374;2024-01-06T08:22:50;4.50;99.90
12438;DHT22;6283;51.330;12.374;2024-01-06T08:25:16;4.60;99.90
12438;DHT22;6283;51.330;12.374;2024-01-06T08:27:43;4.70;99.90
12438;DHT22;6283;51.330;12.374;2024-01-06T08:30:09;4.90;99.90
12438;DHT22;6283;51.330;12.374;2024-01-06T08:32:34;4.80;99.90
12438;DHT22;6283;51.330;12.374;2024-01-06T08:35:00;4.80;99.90
12438;DHT22;6283;51.330;12.374;2024-01-06T08:37:26;5.00;99.90
12438;DHT22;6283;51.330;12.374;2024-01-06T08:39:51;4.90;99.90
12438;DHT22;6283;51.330;12.374;2024-01-06T08:42:17;5.00;99.90
12438;DHT22;6283;51.330;12.374;2024-01-06T08:44:43;4.80;99.90
12438;DHT22;6283;51.330;12.374;2024-01-06T08:47:09;4.90;99.90
12438;DHT22;6283;51.330;12.374;2024-01-06T08:49:35;5.10;99.90
12438;DHT22;6283;51.330;12.374;2024-01-06T08:52:00;5.00;99.90
12438;DHT22;6283;51.330;12.374;2024-01-06T08:54:26;5.10;99.90
12438;DHT22;6283;51.330;12.374;2024-01-06T08:56:52;5.40;99.90
12438;DHT22;6283;51.330;12.374;2024-01-06T08:59:17;5.20;99.90
12438;DHT22;6283;51.330;12.374;2024-01-06T09:01:43;5.40;99.90
12438;DHT22;6283;51.330;12.374;2024-01-06T09:04:08;5.40;99.90
12438;DHT22;6283;51.330;12.374;2024-01-06T09:06:36;5.60;99.90
12438;DHT22;6283;51.330;12.374;2024-01-06T09:09:02;5.50;99.90
12438;DHT22;6283;51.330;12.374;2024-01-06T09:11:28;5.70;99.90
12438;DHT22;6283;51.330;12.374;2024-01-06T09:13:53;5.60;99.90
12438;DHT22;6283;51.330;12.374;2024-01-06T09:16:19;5.60;99.90
12438;DHT22;6283;51.330;12.374;2024-01-06T09:18:45;5.60;99.90
12438;DHT22;6283;51.330;12.374;2024-01-06T09:21:11;5.60;99.90
12438;DHT22;6283;51.330;12.374;2024-01-06T09:23:36;5.80;99.90
12438;DHT22;6283;51.330;12.374;2024-01-06T09:26:02;5.70;99.90
12438;DHT22;6283;51.330;12.374;2024-01-06T09:28:28;5.60;99.90
12438;DHT22;6283;51.330;12.374;2024-01-06T09:30:54;5.70;99.90
12438;DHT22;6283;51.330;12.374;2024-01-06T09:33:24;5.70;99.90
12438;DHT22;6283;51.330;12.374;2024-01-06T09:35:50;5.80;99.90
12438;DHT22;6283;51.330;12.374;2024-01-06T09:38:16;5.50;99.90
12438;DHT22;6283;51.330;12.374;2024-01-06T09:40:44;5.90;99.90
12438;DHT22;6283;51.330;12.374;2024-01-06T09:43:10;5.70;99.90
12438;DHT22;6283;51.330;12.374;2024-01-06T09:45:37;5.70;99.90
12438;DHT22;6283;51.330;12.374;2024-01-06T09:48:11;5.80;99.90
12438;DHT22;6283;51.330;12.374;2024-01-06T09:50:40;6.00;99.90
12438;DHT22;6283;51.330;12.374;2024-01-06T09:53:08;5.80;99.90
12438;DHT22;6283;51.330;12.374;2024-01-06T09:55:34;5.90;97.50
12438;DHT22;6283;51.330;12.374;2024-01-06T09:58:01;6.00;89.10
12438;DHT22;6283;51.330;12.374;2024-01-06T10:00:27;5.90;80.10
12438;DHT22;6283;51.330;12.374;2024-01-06T10:02:52;5.90;74.30
12438;DHT22;6283;51.330;12.374;2024-01-06T10:05:18;6.10;60.10
12438;DHT22;6283;51.330;12.374;2024-01-06T10:07:47;6.00;52.70
12438;DHT22;6283;51.330;12.374;2024-01-06T10:10:14;6.40;36.60
12438;DHT22;6283;51.330;12.374;2024-01-06T10:12:40;6.30;28.90
12438;DHT22;6283;51.330;12.374;2024-01-06T10:15:07;6.00;23.10
12438;DHT22;6283;51.330;12.374;2024-01-06T10:17:36;6.10;22.00
12438;DHT22;6283;51.330;12.374;2024-01-06T10:20:02;6.00;18.70
12438;DHT22;6283;51.330;12.374;2024-01-06T10:22:28;6.40;11.60
12438;DHT22;6283;51.330;12.374;2024-01-06T10:24:55;6.10;5.30
12438;DHT22;6283;51.330;12.374;2024-01-06T10:27:21;6.10;3.70
12438;DHT22;6283;51.330;12.374;2024-01-06T10:29:47;6.10;3.60
12438;DHT22;6283;51.330;12.374;2024-01-06T10:32:13;6.20;6.30
12438;DHT22;6283;51.330;12.374;2024-01-06T10:34:38;6.10;5.10
12438;DHT22;6283;51.330;12.374;2024-01-06T10:37:05;5.90;5.50
12438;DHT22;6283;51.330;12.374;2024-01-06T10:39:31;6.20;8.00
12438;DHT22;6283;51.330;12.374;2024-01-06T10:41:57;6.30;10.20
12438;DHT22;6283;51.330;12.374;2024-01-06T10:44:24;6.20;12.80
12438;DHT22;6283;51.330;12.374;2024-01-06T10:46:50;6.20;13.60
12438;DHT22;6283;51.330;12.374;2024-01-06T10:49:20;6.20;11.70
12438;DHT22;6283;51.330;12.374;2024-01-06T10:51:48;6.20;10.00
12438;DHT22;6283;51.330;12.374;2024-01-06T10:54:15;6.50;11.10
12438;DHT22;6283;51.330;12.374;2024-01-06T10:56:43;6.40;8.60
12438;DHT22;6283;51.330;12.374;2024-01-06T10:59:08;6.40;7.30
12438;DHT22;6283;51.330;12.374;2024-01-06T11:01:37;6.90;14.60
12438;DHT22;6283;51.330;12.374;2024-01-06T11:04:04;6.90;1.00
12438;DHT22;6283;51.330;12.374;2024-01-06T11:06:31;6.80;1.00
12438;DHT22;6283;51.330;12.374;2024-01-06T11:09:13;6.80;1.00
12438;DHT22;6283;51.330;12.374;2024-01-06T11:11:40;7.00;1.00
12438;DHT22;6283;51.330;12.374;2024-01-06T11:14:36;7.00;1.00
12438;DHT22;6283;51.330;12.374;2024-01-06T11:17:03;7.20;1.00
12438;DHT22;6283;51.330;12.374;2024-01-06T11:22:30;7.10;1.00
12438;DHT22;6283;51.330;12.374;2024-01-06T11:25:07;6.90;1.00
12438;DHT22;6283;51.330;12.374;2024-01-06T11:27:34;7.10;1.00
12438;DHT22;6283;51.330;12.374;2024-01-06T11:30:02;7.10;1.00
12438;DHT22;6283;51.330;12.374;2024-01-06T11:32:38;7.10;1.00
12438;DHT22;6283;51.330;12.374;2024-01-06T11:35:11;7.00;1.00
12438;DHT22;6283;51.330;12.374;2024-01-06T11:37:52;7.20;1.00
12438;DHT22;6283;51.330;12.374;2024-01-06T11:45:31;7.10;1.00
12438;DHT22;6283;51.330;12.374;2024-01-06T11:48:02;7.10;1.00
12438;DHT22;6283;51.330;12.374;2024-01-06T11:50:30;7.20;1.00
12438;DHT22;6283;51.330;12.374;2024-01-06T11:52:57;7.10;1.00
12438;DHT22;6283;51.330;12.374;2024-01-06T11:55:26;7.20;1.00
12438;DHT22;6283;51.330;12.374;2024-01-06T11:58:00;7.30;1.00
12438;DHT22;6283;51.330;12.374;2024-01-06T12:00:29;7.00;1.00
12438;DHT22;6283;51.330;12.374;2024-01-06T12:02:56;7.20;1.00
12438;DHT22;6283;51.330;12.374;2024-01-06T12:05:22;7.00;1.00
12438;DHT22;6283;51.330;12.374;2024-01-06T12:08:08;7.00;1.00
12438;DHT22;6283;51.330;12.374;2024-01-06T12:10:34;7.20;1.00
12438;DHT22;6283;51.330;12.374;2024-01-06T12:13:01;7.00;1.00
12438;DHT22;6283;51.330;12.374;2024-01-06T12:15:28;7.30;1.00
12438;DHT22;6283;51.330;12.374;2024-01-06T12:17:54;7.20;1.00
12438;DHT22;6283;51.330;12.374;2024-01-06T12:20:25;7.30;1.00
12438;DHT22;6283;51.330;12.374;2024-01-06T12:22:54;7.40;1.00
12438;DHT22;6283;51.330;12.374;2024-01-06T12:25:21;7.40;1.00
12438;DHT22;6283;51.330;12.374;2024-01-06T12:27:48;7.60;1.00
12438;DHT22;6283;51.330;12.374;2024-01-06T12:30:18;7.30;1.00
12438;DHT22;6283;51.330;12.374;2024-01-06T12:32:49;7.20;1.00
12438;DHT22;6283;51.330;12.374;2024-01-06T12:35:15;7.30;1.00
12438;DHT22;6283;51.330;12.374;2024-01-06T12:37:44;7.40;1.00
12438;DHT22;6283;51.330;12.374;2024-01-06T12:40:12;7.10;1.00
12438;DHT22;6283;51.330;12.374;2024-01-06T12:42:38;7.20;1.00
12438;DHT22;6283;51.330;12.374;2024-01-06T12:45:05;7.10;1.00
12438;DHT22;6283;51.330;12.374;2024-01-06T12:47:31;7.00;1.00
12438;DHT22;6283;51.330;12.374;2024-01-06T12:49:57;7.40;1.00
12438;DHT22;6283;51.330;12.374;2024-01-06T12:52:23;6.90;1.00
12438;DHT22;6283;51.330;12.374;2024-01-06T12:54:49;7.10;1.00
12438;DHT22;6283;51.330;12.374;2024-01-06T12:57:15;6.90;1.00
12438;DHT22;6283;51.330;12.374;2024-01-06T12:59:40;7.10;1.00
12438;DHT22;6283;51.330;12.374;2024-01-06T13:02:06;7.00;1.00
12438;DHT22;6283;51.330;12.374;2024-01-06T13:04:32;6.80;1.00
12438;DHT22;6283;51.330;12.374;2024-01-06T13:06:58;6.80;1.00
12438;DHT22;6283;51.330;12.374;2024-01-06T13:09:24;6.80;1.00
12438;DHT22;6283;51.330;12.374;2024-01-06T13:11:50;7.00;1.00
12438;DHT22;6283;51.330;12.374;2024-01-06T13:14:17;6.80;1.00
12438;DHT22;6283;51.330;12.374;2024-01-06T13:16:43;6.70;1.00
12438;DHT22;6283;51.330;12.374;2024-01-06T13:19:08;6.50;1.00
12438;DHT22;6283;51.330;12.374;2024-01-06T13:21:34;6.40;1.00
12438;DHT22;6283;51.330;12.374;2024-01-06T13:24:01;6.20;1.00
12438;DHT22;6283;51.330;12.374;2024-01-06T13:26:28;6.40;1.00
12438;DHT22;6283;51.330;12.374;2024-01-06T13:28:54;5.90;1.00
12438;DHT22;6283;51.330;12.374;2024-01-06T13:31:19;6.10;1.00
12438;DHT22;6283;51.330;12.374;2024-01-06T13:33:46;5.90;1.00
12438;DHT22;6283;51.330;12.374;2024-01-06T13:36:11;6.10;1.00
12438;DHT22;6283;51.330;12.374;2024-01-06T13:38:37;5.70;1.00
12438;DHT22;6283;51.330;12.374;2024-01-06T13:41:03;5.90;1.00
12438;DHT22;6283;51.330;12.374;2024-01-06T13:43:29;5.80;1.00
12438;DHT22;6283;51.330;12.374;2024-01-06T13:45:54;5.60;1.00
12438;DHT22;6283;51.330;12.374;2024-01-06T13:48:21;5.30;1.00
12438;DHT22;6283;51.330;12.374;2024-01-06T13:50:47;5.30;1.00
12438;DHT22;6283;51.330;12.374;2024-01-06T13:53:13;5.50;1.00
12438;DHT22;6283;51.330;12.374;2024-01-06T13:55:39;5.30;3.70
12438;DHT22;6283;51.330;12.374;2024-01-06T13:58:05;5.50;18.90
12438;DHT22;6283;51.330;12.374;2024-01-06T14:00:30;5.50;30.50
12438;DHT22;6283;51.330;12.374;2024-01-06T14:02:56;5.40;39.30
12438;DHT22;6283;51.330;12.374;2024-01-06T14:05:22;5.40;73.80
12438;DHT22;6283;51.330;12.374;2024-01-06T14:07:49;5.30;99.90
12438;DHT22;6283;51.330;12.374;2024-01-06T14:10:16;5.30;99.90
12438;DHT22;6283;51.330;12.374;2024-01-06T14:12:41;5.20;99.90
12438;DHT22;6283;51.330;12.374;2024-01-06T14:15:08;5.20;99.90
12438;DHT22;6283;51.330;12.374;2024-01-06T14:17:34;5.20;99.90
12438;DHT22;6283;51.330;12.374;2024-01-06T14:20:00;5.30;99.90
12438;DHT22;6283;51.330;12.374;2024-01-06T14:22:27;5.10;99.90
12438;DHT22;6283;51.330;12.374;2024-01-06T14:24:52;5.00;99.90
12438;DHT22;6283;51.330;12.374;2024-01-06T14:27:18;5.10;99.90
12438;DHT22;6283;51.330;12.374;2024-01-06T14:29:45;5.10;99.90
12438;DHT22;6283;51.330;12.374;2024-01-06T14:32:10;4.90;99.90
12438;DHT22;6283;51.330;12.374;2024-01-06T14:34:36;4.90;99.90
12438;DHT22;6283;51.330;12.374;2024-01-06T14:37:02;4.90;99.90
12438;DHT22;6283;51.330;12.374;2024-01-06T14:39:28;5.10;99.90
12438;DHT22;6283;51.330;12.374;2024-01-06T14:41:53;4.80;99.90
12438;DHT22;6283;51.330;12.374;2024-01-06T14:44:19;4.90;99.90
12438;DHT22;6283;51.330;12.374;2024-01-06T14:46:46;4.90;99.90
12438;DHT22;6283;51.330;12.374;2024-01-06T14:49:11;4.80;99.90
12438;DHT22;6283;51.330;12.374;2024-01-06T14:51:37;4.60;99.90
12438;DHT22;6283;51.330;12.374;2024-01-06T14:54:03;4.60;99.90
12438;DHT22;6283;51.330;12.374;2024-01-06T14:56:29;4.70;99.90
12438;DHT22;6283;51.330;12.374;2024-01-06T14:58:56;5.00;99.90
12438;DHT22;6283;51.330;12.374;2024-01-06T15:01:21;4.50;99.90
12438;DHT22;6283;51.330;12.374;2024-01-06T15:03:47;4.50;99.90
12438;DHT22;6283;51.330;12.374;2024-01-06T15:06:13;4.50;99.90
12438;DHT22;6283;51.330;12.374;2024-01-06T15:08:39;4.70;99.90
12438;DHT22;6283;51.330;12.374;2024-01-06T15:11:04;4.50;99.90
12438;DHT22;6283;51.330;12.374;2024-01-06T15:13:32;4.60;99.90
12438;DHT22;6283;51.330;12.374;2024-01-06T15:15:57;4.50;99.90
12438;DHT22;6283;51.330;12.374;2024-01-06T15:18:23;4.40;99.90
12438;DHT22;6283;51.330;12.374;2024-01-06T15:20:49;4.50;99.90
12438;DHT22;6283;51.330;12.374;2024-01-06T15:23:15;4.50;99.90
12438;DHT22;6283;51.330;12.374;2024-01-06T15:25:44;4.50;99.90
12438;DHT22;6283;51.330;12.374;2024-01-06T15:28:09;4.50;99.90
12438;DHT22;6283;51.330;12.374;2024-01-06T15:30:35;4.30;99.90
12438;DHT22;6283;51.330;12.374;2024-01-06T15:33:01;4.60;1.00
12438;DHT22;6283;51.330;12.374;2024-01-06T15:35:26;4.30;1.00
12438;DHT22;6283;51.330;12.374;2024-01-06T15:37:52;4.20;1.00
12438;DHT22;6283;51.330;12.374;2024-01-06T15:40:18;4.40;1.00
12438;DHT22;6283;51.330;12.374;2024-01-06T15:42:43;4.30;1.00
12438;DHT22;6283;51.330;12.374;2024-01-06T15:45:09;4.40;1.00
12438;DHT22;6283;51.330;12.374;2024-01-06T15:47:37;4.20;1.00
12438;DHT22;6283;51.330;12.374;2024-01-06T15:50:03;4.30;1.00
12438;DHT22;6283;51.330;12.374;2024-01-06T15:52:29;4.20;1.00
12438;DHT22;6283;51.330;12.374;2024-01-06T15:54:56;4.40;1.00
12438;DHT22;6283;51.330;12.374;2024-01-06T15:57:21;4.20;1.00